< < Back
Terminal Aerodrome Forecast


Current Version              Previous Versions:   1  2  3  4  5  6  7  8  9  

Terminal Aerodrome Forecast

904
FTUS42 KCHS 262336
TAFSAV
TAF
KSAV 262336Z 2700/2724 15007KT P6SM SCT040
     FM270900 15004KT P6SM SCT025
     FM271300 15007KT P6SM SCT040=

Latest METAR

469
SAUS80 KWBC 270100 RRA
MTRSAV
METAR KSAV 270053Z 15009KT 10SM FEW034 SCT100 OVC200 26/21 A3022 RMK AO2
SLP234 T02560211 $


USA.gov is the U.S. government's official web portal to all federal, state and local government web resources and services.